Time;durP1;ratioP1;P1;durP2;ratioP2;P2;SDS_P1;SDS_P2;PMS_P1;PMS_P2;Temp;Humidity;BMP_temperature;BMP_pressure;BME280_temperature;BME280_humidity;BME280_pressure;Samples;Min_cycle;Max_cycle;Signal;HPM_P1;HPM_P2
2020/12/06 00:00:46;;;;;;;6.00;5.28;;;9.50;79.30;;;;;;5118219;27;20055;-53
2020/12/06 00:03:12;;;;;;;6.07;5.43;;;9.50;79.20;;;;;;5133525;27;20087;-52
2020/12/06 00:05:58;;;;;;;6.95;5.57;;;9.50;79.30;;;;;;5118184;27;20051;-52
2020/12/06 00:08:23;;;;;;;5.85;5.18;;;9.50;79.30;;;;;;5133238;27;20380;-53
2020/12/06 00:10:49;;;;;;;4.90;4.40;;;9.40;79.20;;;;;;5133367;27;20047;-51
2020/12/06 00:13:15;;;;;;;5.28;4.45;;;9.50;79.20;;;;;;5132932;27;20043;-50
2020/12/06 00:15:40;;;;;;;6.18;5.00;;;9.40;79.20;;;;;;5133064;27;20039;-53
2020/12/06 00:18:06;;;;;;;6.45;5.18;;;9.50;79.20;;;;;;5133194;27;20103;-50
2020/12/06 00:20:53;;;;;;;6.15;5.20;;;9.40;79.20;;;;;;5118066;28;20051;-52
2020/12/06 00:23:20;;;;;;;6.30;5.43;;;9.50;79.20;;;;;;5133354;28;20051;-52
2020/12/06 00:25:50;;;;;;;5.53;5.03;;;9.40;79.20;;;;;;5133349;28;20054;-53
2020/12/06 00:28:16;;;;;;;5.75;4.95;;;9.40;79.20;;;;;;5133066;28;20051;-53
2020/12/06 00:30:41;;;;;;;5.40;4.28;;;9.40;79.20;;;;;;5132768;28;20388;-51
2020/12/06 00:33:08;;;;;;;5.78;4.80;;;9.50;79.30;;;;;;5132903;28;20117;-52
2020/12/06 00:35:54;;;;;;;6.13;5.07;;;9.40;79.20;;;;;;5117855;28;20376;-49
2020/12/06 00:38:40;;;;;;;;;;;9.40;79.20;;;;;;5118396;28;20143;-53
2020/12/06 00:41:25;;;;;;;5.85;4.85;;;9.40;79.20;;;;;;5117965;28;19984;-51
2020/12/06 00:43:51;;;;;;;5.65;4.70;;;9.40;79.20;;;;;;5132926;28;20403;-48
2020/12/06 00:46:37;;;;;;;5.63;4.78;;;9.40;79.20;;;;;;5117130;28;20048;-51
2020/12/06 00:49:02;;;;;;;5.75;5.15;;;9.40;79.20;;;;;;5133061;28;20047;-52
2020/12/06 00:51:49;;;;;;;5.57;4.85;;;9.40;79.20;;;;;;5117747;28;20047;-53
2020/12/06 00:54:34;;;;;;;6.00;4.85;;;9.40;79.20;;;;;;5117631;28;20059;-51
2020/12/06 00:57:00;;;;;;;5.10;4.55;;;9.40;79.20;;;;;;5133138;28;20047;-53
2020/12/06 00:59:26;;;;;;;6.18;5.15;;;9.40;79.20;;;;;;5135164;27;20047;-51
2020/12/06 01:02:12;;;;;;;5.90;4.88;;;9.40;79.20;;;;;;5121121;27;20047;-52
2020/12/06 01:04:37;;;;;;;5.90;5.30;;;9.40;79.20;;;;;;5136715;27;20043;-49
2020/12/06 01:07:04;;;;;;;5.80;5.13;;;9.40;79.20;;;;;;5136536;27;20061;-52
2020/12/06 01:09:29;;;;;;;6.13;4.32;;;9.40;79.20;;;;;;5136746;27;20487;-49
2020/12/06 01:11:55;;;;;;;5.70;4.60;;;9.40;79.20;;;;;;5136943;27;20045;-53
2020/12/06 01:14:21;;;;;;;5.97;5.38;;;9.40;79.20;;;;;;5136915;27;20118;-52
2020/12/06 01:16:50;;;;;;;6.03;4.70;;;9.40;79.20;;;;;;5136512;27;20043;-49
2020/12/06 01:19:18;;;;;;;6.82;5.25;;;9.40;79.30;;;;;;5136008;27;20092;-51
2020/12/06 01:21:48;;;;;;;6.80;4.93;;;9.40;79.20;;;;;;5136494;27;20103;-51
2020/12/06 01:24:13;;;;;;;5.70;4.75;;;9.40;79.20;;;;;;5136774;27;20051;-54
2020/12/06 01:26:39;;;;;;;6.53;5.05;;;9.40;79.20;;;;;;5136548;27;20504;-47
2020/12/06 01:29:05;;;;;;;6.38;5.18;;;9.40;79.20;;;;;;5136249;27;20055;-49
2020/12/06 01:31:50;;;;;;;6.82;5.40;;;9.40;79.20;;;;;;5121544;27;20054;-49
2020/12/06 01:34:16;;;;;;;7.07;5.22;;;9.40;79.20;;;;;;5117677;27;20046;-47
2020/12/06 01:37:02;;;;;;;;;;;9.40;79.90;;;;;;5107401;27;20043;-48
2020/12/06 01:39:47;;;;;;;6.18;4.78;;;9.40;79.20;;;;;;5120937;27;19972;-46
2020/12/06 01:42:13;;;;;;;8.00;5.70;;;9.40;79.20;;;;;;5136314;27;20035;-48
2020/12/06 01:45:00;;;;;;;6.32;5.00;;;9.40;79.20;;;;;;5120391;27;20095;-49
2020/12/06 01:47:29;;;;;;;5.90;5.15;;;9.40;79.20;;;;;;5136041;27;20088;-49
2020/12/06 01:50:15;;;;;;;5.47;4.97;;;9.40;79.20;;;;;;5120363;27;20043;-48
2020/12/06 01:52:41;;;;;;;6.00;4.75;;;9.40;79.20;;;;;;5136134;27;20043;-48
2020/12/06 01:55:12;;;;;;;5.10;4.60;;;9.40;79.20;;;;;;5135908;27;20347;-49
2020/12/06 01:57:38;;;;;;;6.63;5.18;;;9.40;79.20;;;;;;5135559;27;20048;-50
2020/12/06 02:00:23;;;;;;;;;;;9.40;79.20;;;;;;5120833;27;20047;-49
2020/12/06 02:02:49;;;;;;;;;;;9.30;79.10;;;;;;5136193;27;19922;-49
2020/12/06 02:05:15;;;;;;;6.70;5.05;;;9.40;79.20;;;;;;5135454;27;19942;-49
2020/12/06 02:07:43;;;;;;;7.32;5.20;;;9.30;79.20;;;;;;5135052;27;20043;-48
2020/12/06 02:10:30;;;;;;;6.75;5.53;;;9.40;79.20;;;;;;5119729;27;20548;-47
2020/12/06 02:12:57;;;;;;;5.95;5.25;;;9.30;79.20;;;;;;5135665;27;20043;-52
2020/12/06 02:15:23;;;;;;;6.43;5.25;;;9.40;79.20;;;;;;5117545;27;20047;-53
2020/12/06 02:18:09;;;;;;;6.38;5.00;;;9.40;79.30;;;;;;5120230;27;20394;-52
2020/12/06 02:21:00;;;;;;;6.38;5.07;;;9.40;79.20;;;;;;5106094;27;20051;-48
2020/12/06 02:23:25;;;;;;;7.65;5.78;;;9.40;79.20;;;;;;5134705;27;20043;-51
2020/12/06 02:25:51;;;;;;;5.55;5.05;;;9.40;79.20;;;;;;5135259;27;20077;-51
2020/12/06 02:28:17;;;;;;;8.07;5.53;;;9.40;79.20;;;;;;5135010;27;20074;-52
2020/12/06 02:30:43;;;;;;;6.30;5.07;;;9.40;79.30;;;;;;5135130;27;20475;-53
2020/12/06 02:33:09;;;;;;;6.90;5.32;;;9.40;79.20;;;;;;5135045;27;20088;-52
2020/12/06 02:35:34;;;;;;;6.07;5.03;;;9.40;79.30;;;;;;5135141;27;20104;-50
2020/12/06 02:38:00;;;;;;;5.90;5.03;;;9.30;79.20;;;;;;5134461;27;20499;-49
2020/12/06 02:40:25;;;;;;;7.80;5.47;;;9.30;79.20;;;;;;5134761;27;20084;-46
2020/12/06 02:42:51;;;;;;;6.13;5.50;;;9.40;79.20;;;;;;5135246;27;20043;-47
2020/12/06 02:45:17;;;;;;;6.72;5.45;;;9.40;79.20;;;;;;5134918;27;20039;-46
2020/12/06 02:47:43;;;;;;;6.47;5.75;;;9.40;79.30;;;;;;5134689;27;20064;-47
2020/12/06 02:50:08;;;;;;;6.60;5.30;;;9.30;79.20;;;;;;5134630;27;20050;-49
2020/12/06 02:52:34;;;;;;;6.70;5.50;;;9.40;79.20;;;;;;5134995;27;20051;-52
2020/12/06 02:54:59;;;;;;;7.78;5.60;;;9.30;79.20;;;;;;5134032;27;20509;-47
2020/12/06 02:57:25;;;;;;;7.07;5.57;;;9.40;79.20;;;;;;5134753;27;20047;-46
2020/12/06 02:59:51;;;;;;;6.18;5.57;;;9.40;79.20;;;;;;5134698;27;20053;-47
2020/12/06 03:02:17;;;;;;;6.10;5.20;;;9.40;79.20;;;;;;5134460;27;20057;-46
2020/12/06 03:04:42;;;;;;;6.35;5.18;;;9.30;79.20;;;;;;5134246;27;20100;-47
2020/12/06 03:07:08;;;;;;;6.60;5.65;;;9.30;79.20;;;;;;5134481;27;20402;-50
2020/12/06 03:09:34;;;;;;;6.43;5.20;;;9.40;79.20;;;;;;5134291;27;20130;-49
2020/12/06 03:12:00;;;;;;;6.28;5.10;;;9.30;79.20;;;;;;5133962;27;20150;-50
2020/12/06 03:14:46;;;;;;;5.97;5.35;;;9.30;79.20;;;;;;5119138;27;20043;-47
2020/12/06 03:17:11;;;;;;;7.00;5.10;;;9.30;79.20;;;;;;5134093;27;20372;-47
2020/12/06 03:19:57;;;;;;;5.88;5.15;;;9.30;79.20;;;;;;5119031;27;20054;-46
2020/12/06 03:22:23;;;;;;;7.75;5.50;;;9.30;79.20;;;;;;5133444;27;20475;-49
2020/12/06 03:24:48;;;;;;;7.05;5.95;;;9.30;79.20;;;;;;5134279;27;20047;-47
2020/12/06 03:27:14;;;;;;;7.38;5.90;;;9.30;79.20;;;;;;5133336;27;20043;-50
2020/12/06 03:30:00;;;;;;;6.97;6.00;;;9.30;79.20;;;;;;5118994;27;20468;-47
2020/12/06 03:32:26;;;;;;;8.05;6.32;;;9.30;79.20;;;;;;5134333;27;20051;-50
2020/12/06 03:34:51;;;;;;;6.28;5.35;;;9.30;79.20;;;;;;5134138;27;20049;-50
2020/12/06 03:37:37;;;;;;;5.75;4.70;;;9.30;79.80;;;;;;5118466;27;20047;-49
2020/12/06 03:40:03;;;;;;;5.72;5.13;;;9.30;79.20;;;;;;5134048;27;20058;-49
2020/12/06 03:42:29;;;;;;;5.65;5.03;;;9.30;79.20;;;;;;5133561;27;20051;-48
2020/12/06 03:44:55;;;;;;;6.25;5.65;;;9.30;79.20;;;;;;5134433;27;20095;-46
2020/12/06 03:47:41;;;;;;;6.75;5.95;;;9.30;79.20;;;;;;5118664;27;20119;-47
2020/12/06 03:50:06;;;;;;;6.85;5.22;;;9.30;79.20;;;;;;5133676;27;20121;-44
2020/12/06 03:52:32;;;;;;;6.25;5.38;;;9.30;79.20;;;;;;5133814;27;20035;-48
2020/12/06 03:54:58;;;;;;;7.82;5.93;;;9.30;79.80;;;;;;5133836;27;20054;-45
2020/12/06 03:57:23;;;;;;;6.35;5.22;;;9.30;79.20;;;;;;5133409;27;20624;-49
2020/12/06 03:59:49;;;;;;;5.97;5.35;;;9.30;79.20;;;;;;5133133;27;20063;-47
2020/12/06 04:02:15;;;;;;;6.03;5.43;;;9.30;79.20;;;;;;5133402;27;20055;-48
2020/12/06 04:04:41;;;;;;;6.90;6.07;;;9.30;79.10;;;;;;5133432;27;20043;-49
2020/12/06 04:07:07;;;;;;;7.18;6.00;;;9.30;79.20;;;;;;5133346;27;20055;-50
2020/12/06 04:09:53;;;;;;;6.97;5.30;;;9.30;79.20;;;;;;5118164;27;20050;-48
2020/12/06 04:12:39;;;;;;;7.13;5.43;;;9.30;79.20;;;;;;5118238;27;20088;-49
2020/12/06 04:15:04;;;;;;;6.78;5.53;;;9.30;79.20;;;;;;5132684;27;20043;-51
2020/12/06 04:17:50;;;;;;;7.80;5.60;;;9.30;79.20;;;;;;5117939;27;20406;-47
2020/12/06 04:20:16;;;;;;;6.50;5.80;;;9.30;79.20;;;;;;5133431;27;20051;-47
2020/12/06 04:22:41;;;;;;;7.03;5.95;;;9.30;79.20;;;;;;5133536;28;20502;-47
2020/12/06 04:25:08;;;;;;;6.22;5.40;;;9.30;79.20;;;;;;5133334;28;20123;-46
2020/12/06 04:27:54;;;;;;;6.47;5.55;;;9.30;79.20;;;;;;5117619;28;20055;-48
2020/12/06 04:30:19;;;;;;;6.65;5.70;;;9.30;79.20;;;;;;5132639;28;20047;-50
2020/12/06 04:32:45;;;;;;;6.35;5.60;;;9.30;79.20;;;;;;5134200;27;20410;-51
2020/12/06 04:35:11;;;;;;;6.85;5.90;;;9.30;79.20;;;;;;5137212;27;20116;-49
2020/12/06 04:37:36;;;;;;;7.07;5.57;;;9.30;79.20;;;;;;5137588;27;20058;-50
2020/12/06 04:40:03;;;;;;;7.00;5.57;;;9.30;79.20;;;;;;5137443;27;20055;-51
2020/12/06 04:42:29;;;;;;;7.28;5.75;;;9.40;79.20;;;;;;5137517;27;20457;-47
2020/12/06 04:45:14;;;;;;;8.00;6.00;;;9.30;79.20;;;;;;5122176;27;20075;-48
2020/12/06 04:48:08;;;;;;;7.15;5.55;;;9.30;79.20;;;;;;5121322;27;20047;-51
2020/12/06 04:50:42;;;;;;;6.90;5.80;;;9.30;79.20;;;;;;5137165;27;20043;-47
2020/12/06 04:53:16;;;;;;;8.30;5.97;;;9.30;79.20;;;;;;5137115;27;20127;-47
2020/12/06 04:56:06;;;;;;;6.57;5.88;;;9.30;79.20;;;;;;5121473;27;20407;-48
2020/12/06 04:58:34;;;;;;;7.05;6.03;;;9.30;79.30;;;;;;5136819;27;20046;-48
2020/12/06 05:01:21;;;;;;;6.50;5.22;;;9.30;79.20;;;;;;5121528;27;20051;-47
2020/12/06 05:03:56;;;;;;;7.22;6.00;;;9.30;79.20;;;;;;5136272;27;20042;-48
2020/12/06 05:06:23;;;;;;;6.28;5.47;;;9.30;79.20;;;;;;5136937;27;20051;-49
2020/12/06 05:08:49;;;;;;;7.80;6.25;;;9.30;79.20;;;;;;5136754;27;20047;-48
2020/12/06 05:11:17;;;;;;;8.00;6.30;;;9.30;79.20;;;;;;5136680;27;20047;-48
2020/12/06 05:14:06;;;;;;;7.97;6.05;;;9.30;79.20;;;;;;5120925;27;20445;-48
2020/12/06 05:16:36;;;;;;;6.78;5.68;;;9.30;79.20;;;;;;5136684;27;20057;-51
2020/12/06 05:19:04;;;;;;;7.55;5.70;;;9.30;79.20;;;;;;5136102;27;20043;-46
2020/12/06 05:21:37;;;;;;;7.00;5.88;;;9.30;79.20;;;;;;5136572;27;20122;-48
2020/12/06 05:24:03;;;;;;;8.15;6.40;;;9.30;79.20;;;;;;5136505;27;20047;-48
2020/12/06 05:26:50;;;;;;;7.25;6.18;;;9.20;79.10;;;;;;5121352;27;20051;-50
2020/12/06 05:29:16;;;;;;;6.57;5.88;;;9.30;79.20;;;;;;5136100;27;20059;-48
2020/12/06 05:32:01;;;;;;;7.68;6.32;;;9.30;79.20;;;;;;5121374;27;20137;-47
2020/12/06 05:34:47;;;;;;;7.20;6.50;;;9.30;79.20;;;;;;5120787;27;20456;-48
2020/12/06 05:37:13;;;;;;;7.30;5.95;;;9.30;79.20;;;;;;5136362;27;20031;-48
2020/12/06 05:39:38;;;;;;;7.00;5.90;;;9.20;79.10;;;;;;5136274;27;20081;-45
2020/12/06 05:42:25;;;;;;;7.15;5.95;;;9.20;79.10;;;;;;5120820;27;20364;-48
2020/12/06 05:44:57;;;;;;;6.80;6.10;;;9.20;79.10;;;;;;5135753;27;20051;-49
2020/12/06 05:47:23;;;;;;;7.53;6.72;;;9.20;79.10;;;;;;5136291;27;20544;-52
2020/12/06 05:49:49;;;;;;;7.47;6.25;;;9.30;79.20;;;;;;5136027;27;20051;-49
2020/12/06 05:52:20;;;;;;;7.00;6.05;;;9.20;79.00;;;;;;5136009;27;20046;-49
2020/12/06 05:54:47;;;;;;;6.65;5.80;;;9.20;79.10;;;;;;5135794;27;20047;-48
2020/12/06 05:57:13;;;;;;;8.95;6.70;;;9.20;79.10;;;;;;5136097;27;20043;-49
2020/12/06 05:59:40;;;;;;;7.78;6.65;;;9.30;79.20;;;;;;5135988;27;20074;-47
2020/12/06 06:02:26;;;;;;;7.57;6.60;;;9.20;79.10;;;;;;5120731;27;20047;-45
2020/12/06 06:04:57;;;;;;;6.93;6.13;;;9.30;79.20;;;;;;5135675;27;20084;-49
2020/12/06 06:07:24;;;;;;;7.63;5.90;;;9.20;79.10;;;;;;5135068;27;20058;-49
2020/12/06 06:10:16;;;;;;;7.63;6.10;;;9.20;79.80;;;;;;5120212;27;20043;-52
2020/12/06 06:12:44;;;;;;;7.93;6.32;;;9.20;79.10;;;;;;5135884;27;20054;-47
2020/12/06 06:15:10;;;;;;;9.07;6.70;;;9.20;79.10;;;;;;5135531;27;20066;-48
2020/12/06 06:17:38;;;;;;;7.43;6.00;;;9.20;79.10;;;;;;5135493;27;20046;-49
2020/12/06 06:20:03;;;;;;;7.60;6.65;;;9.20;79.10;;;;;;5135533;27;20058;-48
2020/12/06 06:22:35;;;;;;;6.82;6.07;;;9.20;79.10;;;;;;5134776;27;20050;-52
2020/12/06 06:25:03;;;;;;;7.68;6.45;;;9.20;79.10;;;;;;5135143;27;20445;-51
2020/12/06 06:27:33;;;;;;;7.70;6.45;;;9.20;79.10;;;;;;5135085;27;20051;-49
2020/12/06 06:30:20;;;;;;;8.90;6.30;;;9.20;79.10;;;;;;5119639;27;20045;-49
2020/12/06 06:32:46;;;;;;;7.93;6.82;;;9.20;79.10;;;;;;5134941;27;20491;-49
2020/12/06 06:35:11;;;;;;;7.72;6.38;;;9.20;79.10;;;;;;5135018;27;20118;-52
2020/12/06 06:37:58;;;;;;;7.90;6.65;;;9.20;79.10;;;;;;5119702;27;20043;-47
2020/12/06 06:40:45;;;;;;;10.02;7.32;;;9.20;79.10;;;;;;5119741;27;20051;-50
2020/12/06 06:43:16;;;;;;;8.35;6.57;;;9.20;79.10;;;;;;5135089;27;20077;-48
2020/12/06 06:45:45;;;;;;;7.88;6.50;;;9.20;79.10;;;;;;5134900;27;20379;-50
2020/12/06 06:48:18;;;;;;;8.43;6.75;;;9.20;79.20;;;;;;5134837;27;20049;-51
2020/12/06 06:51:04;;;;;;;8.50;6.32;;;9.20;79.20;;;;;;5119689;27;20043;-52
2020/12/06 06:53:30;;;;;;;7.22;6.43;;;9.20;79.10;;;;;;5134772;27;20062;-49
2020/12/06 06:55:59;;;;;;;9.63;7.38;;;9.20;79.10;;;;;;5133287;27;20047;-52
2020/12/06 06:58:28;;;;;;;9.60;7.07;;;9.20;79.10;;;;;;5134536;27;20058;-50
2020/12/06 07:01:21;;;;;;;8.60;7.10;;;9.20;79.10;;;;;;5119392;27;20089;-52
2020/12/06 07:03:48;;;;;;;7.85;6.65;;;9.20;79.10;;;;;;5134609;27;20051;-50
2020/12/06 07:06:47;;;;;;;8.35;6.38;;;9.20;79.10;;;;;;5118977;27;20057;-52
2020/12/06 07:09:37;;;;;;;8.88;7.00;;;9.20;79.10;;;;;;5119317;27;20047;-52
2020/12/06 07:12:23;;;;;;;7.63;6.30;;;9.20;79.10;;;;;;5119017;27;20050;-51
2020/12/06 07:14:48;;;;;;;7.55;6.40;;;9.20;79.20;;;;;;5134046;27;20039;-52
2020/12/06 07:17:15;;;;;;;7.60;6.70;;;9.20;79.20;;;;;;5134194;27;20380;-51
2020/12/06 07:20:03;;;;;;;8.68;6.97;;;9.20;79.10;;;;;;5119093;27;20134;-51
2020/12/06 07:22:28;;;;;;;7.15;6.07;;;9.20;79.10;;;;;;5133962;27;20039;-52
2020/12/06 07:24:54;;;;;;;7.90;6.50;;;9.20;79.20;;;;;;5133965;27;20375;-48
2020/12/06 07:27:20;;;;;;;8.25;6.28;;;9.20;79.20;;;;;;5133311;27;20043;-55
2020/12/06 07:30:08;;;;;;;9.07;6.95;;;9.20;79.20;;;;;;5118149;27;20043;-52
2020/12/06 07:32:35;;;;;;;8.50;7.20;;;9.20;79.20;;;;;;5130186;27;20039;-49
2020/12/06 07:35:01;;;;;;;8.43;6.57;;;9.20;79.40;;;;;;5132532;27;20471;-49
2020/12/06 07:37:27;;;;;;;9.70;6.95;;;9.20;79.20;;;;;;5132714;27;20108;-51
2020/12/06 07:39:53;;;;;;;8.98;6.57;;;9.20;79.20;;;;;;5129699;27;20080;-50
2020/12/06 07:42:24;;;;;;;8.35;6.88;;;9.20;79.20;;;;;;5133117;27;20460;-52
2020/12/06 07:44:52;;;;;;;9.13;7.18;;;9.20;79.20;;;;;;5133069;27;20490;-47
2020/12/06 07:47:18;;;;;;;7.95;6.75;;;9.20;79.20;;;;;;5133711;27;20452;-47
2020/12/06 07:49:46;;;;;;;9.82;7.78;;;9.20;79.20;;;;;;5133215;27;20088;-48
2020/12/06 07:52:13;;;;;;;7.78;6.78;;;9.20;79.20;;;;;;5133461;27;20107;-45
2020/12/06 07:54:38;;;;;;;7.70;6.63;;;9.20;79.20;;;;;;5133143;27;20043;-49
2020/12/06 07:57:41;;;;;;;7.90;6.63;;;9.20;79.20;;;;;;5116544;27;20419;-48
2020/12/06 08:00:37;;;;;;;8.50;6.22;;;9.10;79.10;;;;;;5116692;27;20062;-44
2020/12/06 08:03:05;;;;;;;7.75;6.30;;;9.10;79.10;;;;;;5131592;27;20497;-49
2020/12/06 08:05:51;;;;;;;8.20;7.00;;;9.20;79.20;;;;;;5117447;27;20043;-47
2020/12/06 08:08:38;;;;;;;;;;;9.20;79.10;;;;;;5115285;28;20066;-48
2020/12/06 08:11:06;;;;;;;7.90;6.63;;;9.20;79.10;;;;;;5132879;27;19919;-47
2020/12/06 08:13:33;;;;;;;8.50;7.05;;;9.20;79.20;;;;;;5132749;27;20119;-48
2020/12/06 08:16:08;;;;;;;10.20;7.18;;;9.10;79.10;;;;;;5132678;27;20067;-44
2020/12/06 08:18:34;;;;;;;9.70;6.93;;;9.10;79.10;;;;;;5130216;27;20475;-45
2020/12/06 08:21:00;;;;;;;9.10;6.93;;;9.20;79.20;;;;;;5133550;27;20047;-45
2020/12/06 08:23:30;;;;;;;9.05;7.00;;;9.10;79.10;;;;;;5133178;28;20402;-43
2020/12/06 08:25:56;;;;;;;8.65;7.05;;;9.20;79.20;;;;;;5133412;28;20046;-44
2020/12/06 08:28:22;;;;;;;7.95;6.80;;;9.10;79.10;;;;;;5132881;28;20133;-43
2020/12/06 08:30:48;;;;;;;8.82;7.10;;;9.10;79.10;;;;;;5132684;28;20169;-42
2020/12/06 08:33:13;;;;;;;8.73;7.00;;;9.20;79.20;;;;;;5133578;28;20055;-45
2020/12/06 08:35:47;;;;;;;9.30;7.10;;;9.20;79.20;;;;;;5133815;28;20051;-44
2020/12/06 08:38:27;;;;;;;8.25;6.85;;;9.20;79.20;;;;;;5133424;28;20106;-44
2020/12/06 08:40:55;;;;;;;9.38;7.50;;;9.20;79.20;;;;;;5130774;28;20039;-45
2020/12/06 08:43:48;;;;;;;9.63;7.05;;;9.20;79.20;;;;;;5117060;28;20051;-44
2020/12/06 08:46:25;;;;;;;9.55;6.93;;;9.10;79.10;;;;;;5130943;28;20043;-43
2020/12/06 08:48:53;;;;;;;9.50;7.10;;;9.20;79.20;;;;;;5130405;28;20066;-46
2020/12/06 08:51:32;;;;;;;10.15;7.57;;;9.20;79.20;;;;;;5133268;28;20035;-45
2020/12/06 08:54:06;;;;;;;9.55;7.30;;;9.20;79.20;;;;;;5114283;28;20505;-44
2020/12/06 08:56:52;;;;;;;9.10;6.97;;;9.10;79.10;;;;;;5115476;28;20384;-46
2020/12/06 08:59:17;;;;;;;9.68;6.97;;;9.10;79.20;;;;;;5133217;28;20092;-43
2020/12/06 09:01:54;;;;;;;8.55;6.32;;;9.20;79.20;;;;;;5132741;28;20402;-45
2020/12/06 09:04:20;;;;;;;10.13;6.93;;;9.20;79.20;;;;;;5131404;28;20130;-50
2020/12/06 09:06:47;;;;;;;8.02;7.18;;;9.20;79.20;;;;;;5133044;28;20042;-51
2020/12/06 09:09:33;;;;;;;9.00;6.57;;;9.20;79.10;;;;;;5115535;28;20047;-49
2020/12/06 09:11:59;;;;;;;9.75;7.57;;;9.10;79.10;;;;;;5132770;28;20487;-50
2020/12/06 09:14:25;;;;;;;8.35;6.68;;;9.20;79.20;;;;;;5132571;28;20051;-47
2020/12/06 09:16:51;;;;;;;9.52;6.72;;;9.20;79.20;;;;;;5133129;28;20047;-51
2020/12/06 09:19:18;;;;;;;9.15;7.13;;;9.20;79.20;;;;;;5132670;27;20387;-49
2020/12/06 09:21:44;;;;;;;10.25;7.57;;;9.20;79.10;;;;;;5136594;27;20042;-50
2020/12/06 09:24:10;;;;;;;9.55;7.25;;;9.20;79.20;;;;;;5133653;27;20043;-45
2020/12/06 09:26:36;;;;;;;9.57;7.55;;;9.20;79.10;;;;;;5136109;27;20476;-48
2020/12/06 09:29:01;;;;;;;10.02;7.70;;;9.20;79.10;;;;;;5135433;27;20126;-47
2020/12/06 09:31:27;;;;;;;8.68;7.05;;;9.20;79.10;;;;;;5135967;27;20474;-49
2020/12/06 09:34:13;;;;;;;9.05;7.22;;;9.20;79.20;;;;;;5117989;27;20084;-50
2020/12/06 09:36:43;;;;;;;10.73;7.50;;;9.20;79.10;;;;;;5136278;27;20047;-45
2020/12/06 09:39:09;;;;;;;8.10;6.63;;;9.10;79.10;;;;;;5136315;27;20043;-46
2020/12/06 09:41:34;;;;;;;9.45;7.20;;;9.20;79.10;;;;;;5136332;27;20039;-46
2020/12/06 09:44:04;;;;;;;9.75;7.05;;;9.10;79.10;;;;;;5136233;27;20471;-45
2020/12/06 09:46:30;;;;;;;11.30;8.10;;;9.20;79.10;;;;;;5133500;27;20043;-45
2020/12/06 09:48:56;;;;;;;10.00;7.10;;;9.10;79.10;;;;;;5136271;27;20047;-47
2020/12/06 09:51:42;;;;;;;9.00;7.10;;;9.10;79.10;;;;;;5119268;27;20039;-47
2020/12/06 09:54:28;;;;;;;8.55;7.00;;;9.20;79.10;;;;;;5120493;27;20043;-48
2020/12/06 09:56:53;;;;;;;9.50;7.47;;;9.10;79.10;;;;;;5136098;27;20472;-51
2020/12/06 09:59:39;;;;;;;8.75;6.88;;;9.20;79.10;;;;;;5119358;27;20046;-50
2020/12/06 10:02:25;;;;;;;8.65;6.82;;;9.10;79.10;;;;;;5120277;27;20058;-50
2020/12/06 10:04:50;;;;;;;9.35;7.65;;;9.20;79.10;;;;;;5132633;27;20039;-46
2020/12/06 10:07:16;;;;;;;9.40;6.80;;;9.10;79.10;;;;;;5132583;27;20073;-52
2020/12/06 10:09:41;;;;;;;10.07;7.75;;;9.20;79.10;;;;;;5135762;27;20039;-46
2020/12/06 10:12:27;;;;;;;8.52;6.85;;;9.20;79.10;;;;;;5119501;27;20058;-49
2020/12/06 10:14:53;;;;;;;9.52;7.60;;;9.10;79.10;;;;;;5135964;27;20039;-48
2020/12/06 10:17:18;;;;;;;10.68;7.40;;;9.10;79.10;;;;;;5135481;27;20039;-47
2020/12/06 10:19:45;;;;;;;16.77;12.77;;;9.10;79.10;;;;;;5135864;27;20047;-51
2020/12/06 10:22:10;;;;;;;18.65;13.77;;;9.10;78.00;;;;;;5135840;27;20070;-49
2020/12/06 10:24:36;;;;;;;16.00;12.52;;;9.00;78.40;;;;;;5135750;27;20046;-46
2020/12/06 10:27:01;;;;;;;16.90;12.93;;;8.90;78.40;;;;;;5135815;27;20096;-50
2020/12/06 10:29:27;;;;;;;21.17;13.80;;;9.00;78.50;;;;;;5135541;27;20061;-49
2020/12/06 10:31:55;;;;;;;20.48;14.50;;;9.00;78.50;;;;;;5135557;27;20039;-49
2020/12/06 10:34:40;;;;;;;19.08;12.93;;;9.00;78.50;;;;;;5106582;27;20380;-53
2020/12/06 10:37:06;;;;;;;18.30;13.13;;;9.00;78.50;;;;;;5135940;27;20073;-50
2020/12/06 10:39:32;;;;;;;20.75;14.30;;;9.00;78.50;;;;;;5135173;27;20498;-52
2020/12/06 10:41:57;;;;;;;18.50;13.10;;;9.00;78.50;;;;;;5135619;27;20043;-47
2020/12/06 10:44:43;;;;;;;18.38;13.05;;;9.00;78.50;;;;;;5120166;27;20176;-51
2020/12/06 10:47:28;;;;;;;17.60;12.20;;;9.00;78.50;;;;;;5120413;27;20101;-51
2020/12/06 10:49:54;;;;;;;20.05;13.50;;;9.00;78.50;;;;;;5135578;27;20498;-50
2020/12/06 10:52:20;;;;;;;18.92;12.98;;;9.10;78.60;;;;;;5135309;27;20039;-50
2020/12/06 10:54:46;;;;;;;18.88;13.88;;;9.10;78.60;;;;;;5135114;27;20047;-48
2020/12/06 10:57:11;;;;;;;17.83;13.52;;;9.10;78.70;;;;;;5135404;27;20476;-51
2020/12/06 10:59:37;;;;;;;18.63;13.55;;;9.10;78.60;;;;;;5135239;27;20043;-51
2020/12/06 11:02:03;;;;;;;18.73;12.90;;;9.10;78.60;;;;;;5135354;27;20407;-53
2020/12/06 11:04:29;;;;;;;18.77;13.60;;;9.10;78.70;;;;;;5135661;27;20422;-52
2020/12/06 11:06:58;;;;;;;18.45;14.10;;;9.10;78.70;;;;;;5135025;27;20043;-46
2020/12/06 11:09:24;;;;;;;19.23;12.93;;;9.10;78.70;;;;;;5135248;27;20054;-48
2020/12/06 11:11:50;;;;;;;18.08;12.80;;;9.10;78.70;;;;;;5134475;27;20046;-52
2020/12/06 11:14:17;;;;;;;18.23;12.90;;;9.10;78.70;;;;;;5135074;27;20043;-51
2020/12/06 11:16:43;;;;;;;18.95;13.30;;;9.10;78.70;;;;;;5135212;27;20047;-52
2020/12/06 11:19:09;;;;;;;17.45;12.68;;;9.10;78.70;;;;;;5134845;27;20043;-50
2020/12/06 11:21:35;;;;;;;20.77;13.38;;;9.10;78.70;;;;;;5134803;27;20050;-49
2020/12/06 11:24:21;;;;;;;17.73;13.30;;;9.10;78.70;;;;;;5119773;27;20108;-51
2020/12/06 11:26:46;;;;;;;18.30;13.38;;;9.10;78.70;;;;;;5134442;27;20055;-50
2020/12/06 11:29:12;;;;;;;18.20;13.57;;;9.10;78.70;;;;;;5134444;27;20081;-48
2020/12/06 11:31:58;;;;;;;17.08;12.30;;;9.10;78.70;;;;;;5119571;27;20051;-49
2020/12/06 11:34:24;;;;;;;18.42;13.32;;;9.10;78.70;;;;;;5134513;27;20558;-49
2020/12/06 11:36:50;;;;;;;18.88;13.65;;;9.10;78.70;;;;;;5134885;27;20086;-47
2020/12/06 11:39:36;;;;;;;15.90;12.10;;;9.10;78.70;;;;;;5119467;27;20047;-47
2020/12/06 11:42:21;;;;;;;14.50;11.63;;;9.10;78.70;;;;;;5118294;27;20051;-48
2020/12/06 11:44:47;;;;;;;17.60;13.00;;;9.10;78.70;;;;;;5134553;27;20451;-48
2020/12/06 11:47:12;;;;;;;16.00;12.52;;;9.10;78.70;;;;;;5134286;27;20039;-47
2020/12/06 11:49:38;;;;;;;16.95;12.95;;;9.10;78.70;;;;;;5134316;27;20055;-46
2020/12/06 11:52:07;;;;;;;20.48;13.18;;;9.10;78.70;;;;;;5134120;27;20485;-45
2020/12/06 11:54:34;;;;;;;16.33;12.02;;;9.10;78.80;;;;;;5134526;27;20200;-49
2020/12/06 11:57:00;;;;;;;17.02;12.73;;;9.20;78.80;;;;;;5134406;27;20051;-48
2020/12/06 11:59:25;;;;;;;16.75;12.63;;;9.20;78.80;;;;;;5133864;27;20079;-48
2020/12/06 12:01:52;;;;;;;17.08;12.85;;;9.10;78.70;;;;;;5133985;27;20126;-47
2020/12/06 12:04:18;;;;;;;16.80;12.05;;;9.20;78.80;;;;;;5134229;27;20156;-49
2020/12/06 12:06:44;;;;;;;16.75;12.43;;;9.20;78.80;;;;;;5134036;27;20402;-49
2020/12/06 12:09:09;;;;;;;15.70;12.30;;;9.20;78.80;;;;;;5115859;28;20043;-49
2020/12/06 12:11:55;;;;;;;17.55;12.75;;;9.10;78.70;;;;;;5118889;27;20053;-47
2020/12/06 12:14:21;;;;;;;15.88;12.23;;;9.20;78.80;;;;;;5133699;27;20418;-50
2020/12/06 12:16:46;;;;;;;17.20;12.43;;;9.20;78.80;;;;;;5133809;27;20050;-48
2020/12/06 12:19:33;;;;;;;17.92;13.73;;;9.20;78.80;;;;;;5119042;27;20141;-48
2020/12/06 12:22:20;;;;;;;15.45;12.13;;;9.20;78.80;;;;;;5118450;28;20051;-47
2020/12/06 12:25:06;;;;;;;16.98;12.77;;;9.10;78.70;;;;;;5118897;28;20107;-48
2020/12/06 12:27:52;;;;;;;14.43;11.50;;;9.20;78.80;;;;;;5118299;28;20531;-49
2020/12/06 12:30:17;;;;;;;15.93;11.07;;;9.20;78.80;;;;;;5133349;28;20131;-51
2020/12/06 12:32:43;;;;;;;14.90;11.68;;;9.10;78.70;;;;;;5133917;28;20403;-48
2020/12/06 12:35:09;;;;;;;17.00;12.00;;;9.10;78.70;;;;;;5133877;28;20120;-50
2020/12/06 12:37:56;;;;;;;15.73;11.32;;;9.20;78.70;;;;;;5118733;28;20050;-47
2020/12/06 12:40:25;;;;;;;16.10;12.13;;;9.20;78.70;;;;;;5133687;28;20043;-48
2020/12/06 12:43:10;;;;;;;14.82;11.05;;;9.20;78.80;;;;;;5118410;28;20054;-49
2020/12/06 12:45:36;;;;;;;14.85;11.43;;;9.20;78.80;;;;;;5133666;28;20047;-47
2020/12/06 12:48:22;;;;;;;19.08;12.68;;;9.20;78.80;;;;;;5117991;28;20063;-49
2020/12/06 12:51:07;;;;;;;17.98;12.02;;;9.20;78.80;;;;;;5118599;28;20058;-52
2020/12/06 12:53:53;;;;;;;17.60;11.60;;;9.20;78.80;;;;;;5119902;27;20035;-51
2020/12/06 12:56:39;;;;;;;;;;;9.20;78.80;;;;;;5122851;27;20146;-46
2020/12/06 12:59:04;;;;;;;;;;;9.10;78.30;;;;;;5137812;27;20422;-46
2020/12/06 13:01:50;;;;;;;22.00;14.40;;;9.10;78.30;;;;;;5121823;27;20035;-50
2020/12/06 13:04:16;;;;;;;24.40;14.80;;;9.00;78.50;;;;;;5117792;27;20475;-44
2020/12/06 13:06:41;;;;;;;20.00;14.18;;;9.00;78.60;;;;;;5137289;27;20050;-48
2020/12/06 13:09:07;;;;;;;19.42;13.38;;;9.00;78.60;;;;;;5137322;27;20054;-51
2020/12/06 13:11:33;;;;;;;21.80;14.77;;;9.00;78.70;;;;;;5137075;27;20092;-51
2020/12/06 13:14:01;;;;;;;21.85;14.98;;;9.00;78.70;;;;;;5137026;27;20054;-49
2020/12/06 13:16:46;;;;;;;18.98;13.55;;;9.10;78.80;;;;;;5113221;27;20713;-45